createdAt,value
2018-06-03T00:01:21.843Z,98607.09
2018-06-03T00:03:50.130Z,98612.75
2018-06-03T00:06:18.703Z,98614.53
2018-06-03T00:08:47.770Z,98612.05
2018-06-03T00:11:16.352Z,98611.65
2018-06-03T00:13:45.555Z,98615.19
2018-06-03T00:16:13.732Z,98613.52
2018-06-03T00:18:41.970Z,98608.95
2018-06-03T00:21:53.768Z,98613.17
2018-06-03T00:24:21.951Z,98618.53
2018-06-03T00:26:50.693Z,98617.56
2018-06-03T00:29:21.248Z,98614.11
2018-06-03T00:31:51.191Z,98613.86
2018-06-03T00:34:19.913Z,98614.03
2018-06-03T00:36:49.118Z,98616.47
2018-06-03T00:39:17.323Z,98614.65
2018-06-03T00:41:45.615Z,98610.05
2018-06-03T00:44:13.851Z,98613.03
2018-06-03T00:46:42.507Z,98609.13
2018-06-03T00:49:10.720Z,98601.95
2018-06-03T00:51:39.181Z,98603.49
2018-06-03T00:54:07.610Z,98601.30
2018-06-03T00:57:22.691Z,98605.02
2018-06-03T00:59:51.136Z,98607.50
2018-06-03T01:02:19.949Z,98601.86
2018-06-03T01:04:49.830Z,98596.09
2018-06-03T01:07:17.995Z,98600.81
2018-06-03T01:09:46.321Z,98599.04
2018-06-03T01:12:15.354Z,98596.96
2018-06-03T01:14:43.879Z,98595.30
2018-06-03T01:17:12.316Z,98595.74
2018-06-03T01:19:40.538Z,98593.73
2018-06-03T01:22:08.727Z,98597.16
2018-06-03T01:24:37.050Z,98599.08
2018-06-03T01:27:05.633Z,98596.47
2018-06-03T01:29:34.097Z,98599.06
2018-06-03T01:32:02.607Z,98600.07
2018-06-03T01:34:30.959Z,98596.94
2018-06-03T01:36:59.564Z,98595.47
2018-06-03T01:39:28.246Z,98595.91
2018-06-03T01:41:56.766Z,98595.43
2018-06-03T01:44:24.970Z,98593.95
2018-06-03T01:46:53.244Z,98593.03
2018-06-03T01:49:21.450Z,98594.94
2018-06-03T01:51:50.028Z,98593.93
2018-06-03T01:54:18.235Z,98591.59
2018-06-03T01:56:46.733Z,98589.45
2018-06-03T01:59:15.212Z,98588.63
2018-06-03T02:01:43.462Z,98583.05
2018-06-03T02:04:12.747Z,98582.75
2018-06-03T02:06:40.977Z,98580.72
2018-06-03T02:09:10.044Z,98582.27
2018-06-03T02:11:38.424Z,98581.57
2018-06-03T02:14:06.682Z,98572.59
2018-06-03T02:16:35.181Z,98575.70
2018-06-03T02:19:03.789Z,98566.31
2018-06-03T02:21:32.038Z,98561.42
2018-06-03T02:24:00.310Z,98560.34
2018-06-03T02:26:28.625Z,98558.09
2018-06-03T02:28:56.943Z,98559.85
2018-06-03T02:31:25.231Z,98558.64
2018-06-03T02:33:53.507Z,98552.16
2018-06-03T02:36:21.697Z,98556.04
2018-06-03T02:38:50.276Z,98553.32
2018-06-03T02:41:18.522Z,98555.46
2018-06-03T02:43:47.522Z,98550.60
2018-06-03T02:46:15.759Z,98555.09
2018-06-03T02:48:44.044Z,98560.42
2018-06-03T02:51:12.224Z,98555.22
2018-06-03T02:53:40.441Z,98554.76
2018-06-03T02:56:08.664Z,98558.24
2018-06-03T02:58:38.916Z,98557.38
2018-06-03T03:01:07.091Z,98564.81
2018-06-03T03:03:35.295Z,98559.55
2018-06-03T03:06:04.263Z,98556.23
2018-06-03T03:08:32.829Z,98554.30
2018-06-03T03:11:01.670Z,98553.11
2018-06-03T03:13:30.124Z,98552.44
2018-06-03T03:16:00.276Z,98552.39
2018-06-03T03:18:28.507Z,98551.21
2018-06-03T03:20:56.736Z,98551.09
2018-06-03T03:23:25.274Z,98552.67
2018-06-03T03:25:53.650Z,98548.38
2018-06-03T03:28:21.855Z,98552.76
2018-06-03T03:30:50.386Z,98555.84
2018-06-03T03:33:18.904Z,98556.66
2018-06-03T03:35:47.393Z,98549.26
2018-06-03T03:38:15.535Z,98559.19
2018-06-03T03:40:44.101Z,98558.49
2018-06-03T03:43:15.829Z,98562.50
2018-06-03T03:45:44.023Z,98563.59
2018-06-03T03:48:12.095Z,98562.89
2018-06-03T03:50:40.756Z,98557.56
2018-06-03T03:53:09.057Z,98563.88
2018-06-03T03:55:37.156Z,98565.19
2018-06-03T03:58:05.607Z,98572.73
2018-06-03T04:00:34.039Z,98577.30
2018-06-03T04:03:02.589Z,98583.85
2018-06-03T04:05:31.595Z,98585.97
2018-06-03T04:08:00.676Z,98585.38
2018-06-03T04:10:28.883Z,98585.61
2018-06-03T04:12:57.118Z,98589.80
2018-06-03T04:15:26.075Z,98589.95
2018-06-03T04:17:54.577Z,98594.69
2018-06-03T04:20:23.079Z,98597.08
2018-06-03T04:22:52.074Z,98597.70
2018-06-03T04:25:20.661Z,98599.62
2018-06-03T04:27:49.161Z,98600.92
2018-06-03T04:30:18.121Z,98598.66
2018-06-03T04:32:46.308Z,98604.70
2018-06-03T04:35:14.529Z,98601.54
2018-06-03T04:37:42.866Z,98601.58
2018-06-03T04:40:11.449Z,98607.27
2018-06-03T04:42:39.959Z,98599.23
2018-06-03T04:45:08.263Z,98593.63
2018-06-03T04:47:36.881Z,98597.05
2018-06-03T04:50:05.471Z,98600.52
2018-06-03T04:52:33.839Z,98602.23
2018-06-03T04:55:02.095Z,98606.11
2018-06-03T04:57:30.293Z,98603.44
2018-06-03T04:59:58.706Z,98604.27
2018-06-03T05:02:26.950Z,98600.70
2018-06-03T05:04:55.183Z,98604.08
2018-06-03T05:07:23.402Z,98598.37
2018-06-03T05:09:51.750Z,98600.36
2018-06-03T05:12:20.625Z,98603.03
2018-06-03T05:14:48.905Z,98596.27
2018-06-03T05:17:17.350Z,98596.84
2018-06-03T05:19:45.949Z,98600.27
2018-06-03T05:22:14.296Z,98602.48
2018-06-03T05:24:43.511Z,98602.48
2018-06-03T05:27:11.814Z,98599.19
2018-06-03T05:29:40.114Z,98600.98
2018-06-03T05:32:08.425Z,98599.88
2018-06-03T05:34:36.618Z,98601.36
2018-06-03T05:37:05.141Z,98594.67
2018-06-03T05:39:33.648Z,98603.29
2018-06-03T05:42:01.836Z,98600.55
2018-06-03T05:44:30.360Z,98594.92
2018-06-03T05:46:58.541Z,98608.48
2018-06-03T05:49:26.944Z,98607.02
2018-06-03T05:51:55.290Z,98598.03
2018-06-03T05:54:23.383Z,98604.98
2018-06-03T05:56:51.598Z,98597.52
2018-06-03T05:59:19.813Z,98599.68
2018-06-03T06:01:48.628Z,98599.02
2018-06-03T06:04:16.857Z,98595.91
2018-06-03T06:06:45.070Z,98600.16
2018-06-03T06:09:14.008Z,98596.39
2018-06-03T06:11:42.500Z,98600.32
2018-06-03T06:14:10.755Z,98604.39
2018-06-03T06:16:38.939Z,98606.19
2018-06-03T06:19:07.461Z,98607.78
2018-06-03T06:21:36.214Z,98607.39
2018-06-03T06:24:04.428Z,98608.71
2018-06-03T06:26:33.374Z,98611.66
2018-06-03T06:29:01.608Z,98607.25
2018-06-03T06:31:29.949Z,98610.13
2018-06-03T06:33:58.414Z,98612.27
2018-06-03T06:36:26.952Z,98615.11
2018-06-03T06:38:55.297Z,98613.37
2018-06-03T06:41:23.475Z,98624.05
2018-06-03T06:43:51.744Z,98623.80
2018-06-03T06:46:20.060Z,98619.57
2018-06-03T06:48:48.249Z,98626.69
2018-06-03T06:51:16.578Z,98628.48
2018-06-03T06:53:45.431Z,98629.36
2018-06-03T06:56:14.236Z,98626.79
2018-06-03T06:58:42.911Z,98622.59
2018-06-03T07:01:11.474Z,98619.70
2018-06-03T07:03:39.750Z,98622.23
2018-06-03T07:06:07.971Z,98616.77
2018-06-03T07:08:36.445Z,98618.77
2018-06-03T07:11:05.193Z,98613.89
2018-06-03T07:13:33.734Z,98614.66
2018-06-03T07:16:01.933Z,98613.23
2018-06-03T07:18:30.106Z,98618.78
2018-06-03T07:20:58.366Z,98608.33
2018-06-03T07:23:26.894Z,98620.82
2018-06-03T07:25:55.092Z,98616.32
2018-06-03T07:28:23.625Z,98616.53
2018-06-03T07:30:51.844Z,98613.73
2018-06-03T07:33:20.081Z,98616.15
2018-06-03T07:35:48.303Z,98618.31
2018-06-03T07:38:16.845Z,98621.29
2018-06-03T07:40:46.155Z,98622.16
2018-06-03T07:43:14.775Z,98618.73
2018-06-03T07:45:43.112Z,98621.94
2018-06-03T07:48:11.837Z,98616.55
2018-06-03T07:50:40.598Z,98616.05
2018-06-03T07:53:09.874Z,98611.23
2018-06-03T07:55:38.653Z,98609.84
2018-06-03T07:58:07.360Z,98611.92
2018-06-03T08:00:35.542Z,98609.28
2018-06-03T08:03:04.564Z,98614.84
2018-06-03T08:05:33.325Z,98605.08
2018-06-03T08:08:01.521Z,98607.08
2018-06-03T08:10:30.348Z,98608.00
2018-06-03T08:12:58.840Z,98599.48
2018-06-03T08:15:27.169Z,98602.12
2018-06-03T08:17:55.675Z,98597.75
2018-06-03T08:20:24.833Z,98591.02
2018-06-03T08:22:53.540Z,98593.66
2018-06-03T08:25:21.756Z,98582.73
2018-06-03T08:27:50.751Z,98584.52
2018-06-03T08:30:18.985Z,98584.31
2018-06-03T08:32:47.706Z,98580.86
2018-06-03T08:35:16.471Z,98585.17
2018-06-03T08:37:44.987Z,98586.38
2018-06-03T08:40:14.234Z,98580.02
2018-06-03T08:42:42.778Z,98582.20
2018-06-03T08:45:11.813Z,98579.45
2018-06-03T08:47:40.390Z,98576.67
2018-06-03T08:50:09.042Z,98578.18
2018-06-03T08:52:38.102Z,98576.46
2018-06-03T08:55:06.613Z,98573.67
2018-06-03T08:57:35.866Z,98567.41
2018-06-03T09:00:04.834Z,98565.82
2018-06-03T09:02:33.476Z,98568.98
2018-06-03T09:05:02.405Z,98560.95
2018-06-03T09:07:31.215Z,98567.73
2018-06-03T09:09:59.991Z,98562.86
2018-06-03T09:12:28.879Z,98565.69
2018-06-03T09:14:57.343Z,98561.09
2018-06-03T09:17:26.012Z,98556.69
2018-06-03T09:19:54.592Z,98552.73
2018-06-03T09:22:23.070Z,98554.04
2018-06-03T09:24:51.700Z,98556.28
2018-06-03T09:27:20.456Z,98549.86
2018-06-03T09:29:49.184Z,98557.78
2018-06-03T09:32:18.094Z,98547.12
2018-06-03T09:34:46.987Z,98543.63
2018-06-03T09:37:15.439Z,98547.35
2018-06-03T09:39:44.013Z,98546.50
2018-06-03T09:42:13.313Z,98547.99
2018-06-03T09:44:42.373Z,98547.20
2018-06-03T09:47:10.827Z,98551.69
2018-06-03T09:49:39.154Z,98544.69
2018-06-03T09:52:08.612Z,98541.29
2018-06-03T09:54:37.391Z,98541.01
2018-06-03T09:57:05.669Z,98530.75
2018-06-03T09:59:34.802Z,98530.73
2018-06-03T10:02:03.341Z,98528.36
2018-06-03T10:04:31.687Z,98532.30
2018-06-03T10:07:00.441Z,98529.36
2018-06-03T10:09:29.130Z,98527.86
2018-06-03T10:11:57.825Z,98521.63
2018-06-03T10:14:26.665Z,98518.78
2018-06-03T10:16:55.245Z,98516.03
2018-06-03T10:19:23.808Z,98504.78
2018-06-03T10:21:51.962Z,98504.56
2018-06-03T10:24:20.998Z,98506.33
2018-06-03T10:26:49.954Z,98508.13
2018-06-03T10:29:18.549Z,98510.31
2018-06-03T10:31:46.946Z,98500.22
2018-06-03T10:34:15.732Z,98505.46
2018-06-03T10:36:45.368Z,98505.44
2018-06-03T10:39:14.289Z,98503.72
2018-06-03T10:41:43.036Z,98501.88
2018-06-03T10:44:12.090Z,98511.48
2018-06-03T10:46:40.460Z,98504.59
2018-06-03T10:49:09.407Z,98503.30
2018-06-03T10:51:39.850Z,98508.71
2018-06-03T10:54:08.974Z,98501.80
2018-06-03T10:56:38.095Z,98495.77
2018-06-03T10:59:06.509Z,98496.83
2018-06-03T11:01:35.552Z,98488.81
2018-06-03T11:04:03.809Z,98488.73
2018-06-03T11:06:32.737Z,98488.56
2018-06-03T11:09:01.342Z,98485.56
2018-06-03T11:11:29.537Z,98478.61
2018-06-03T11:13:58.003Z,98487.38
2018-06-03T11:16:26.669Z,98478.58
2018-06-03T11:18:55.209Z,98479.13
2018-06-03T11:21:23.727Z,98475.73
2018-06-03T11:23:52.877Z,98473.09
2018-06-03T11:26:21.097Z,98474.23
2018-06-03T11:28:50.095Z,98463.86
2018-06-03T11:31:19.045Z,98463.98
2018-06-03T11:33:48.261Z,98461.20
2018-06-03T11:36:16.820Z,98456.30
2018-06-03T11:38:46.215Z,98458.75
2018-06-03T11:41:15.463Z,98457.88
2018-06-03T11:43:44.521Z,98457.22
2018-06-03T11:46:13.264Z,98448.63
2018-06-03T11:48:42.030Z,98450.40
2018-06-03T11:51:10.962Z,98440.02
2018-06-03T11:53:39.343Z,98444.08
2018-06-03T11:56:07.574Z,98444.92
2018-06-03T11:58:55.041Z,98435.33
2018-06-03T12:01:25.220Z,98438.78
2018-06-03T12:03:53.629Z,98440.80
2018-06-03T12:06:22.367Z,98431.47
2018-06-03T12:08:51.020Z,98426.64
2018-06-03T12:11:19.297Z,98421.48
2018-06-03T12:13:48.085Z,98413.86
2018-06-03T12:16:17.043Z,98407.39
2018-06-03T12:18:45.661Z,98406.70
2018-06-03T12:21:14.160Z,98406.41
2018-06-03T12:23:42.830Z,98403.15
2018-06-03T12:26:11.595Z,98398.94
2018-06-03T12:28:40.635Z,98395.94
2018-06-03T12:31:09.632Z,98392.95
2018-06-03T12:33:38.334Z,98397.64
2018-06-03T12:36:07.681Z,98389.32
2018-06-03T12:38:36.539Z,98387.59
2018-06-03T12:41:05.688Z,98381.73
2018-06-03T12:43:34.388Z,98379.16
2018-06-03T12:46:03.269Z,98378.91
2018-06-03T12:48:31.922Z,98375.55
2018-06-03T12:51:00.760Z,98363.48
2018-06-03T12:53:29.398Z,98363.25
2018-06-03T12:55:58.169Z,98369.79
2018-06-03T12:58:26.815Z,98362.55
2018-06-03T13:00:55.529Z,98356.29
2018-06-03T13:03:24.210Z,98358.92
2018-06-03T13:05:52.523Z,98354.06
2018-06-03T13:08:21.684Z,98347.29
2018-06-03T13:10:50.916Z,98353.25
2018-06-03T13:13:20.087Z,98357.45
2018-06-03T13:15:48.491Z,98354.27
2018-06-03T13:18:17.206Z,98353.38
2018-06-03T13:20:45.889Z,98345.73
2018-06-03T13:23:15.336Z,98347.75
2018-06-03T13:25:44.233Z,98338.97
2018-06-03T13:28:13.137Z,98334.92
2018-06-03T13:30:41.759Z,98329.45
2018-06-03T13:33:09.986Z,98335.30
2018-06-03T13:35:38.209Z,98323.84
2018-06-03T13:38:06.523Z,98316.73
2018-06-03T13:40:35.087Z,98312.29
2018-06-03T13:43:03.373Z,98310.05
2018-06-03T13:45:33.864Z,98307.16
2018-06-03T13:48:02.711Z,98306.22
2018-06-03T13:50:31.217Z,98309.31
2018-06-03T13:53:00.501Z,98297.83
2018-06-03T13:55:30.007Z,98292.20
2018-06-03T13:57:58.568Z,98293.22
2018-06-03T14:00:28.574Z,98286.39
2018-06-03T14:02:57.428Z,98288.09
2018-06-03T14:05:26.205Z,98284.95
2018-06-03T14:07:55.781Z,98285.05
2018-06-03T14:10:24.275Z,98281.15
2018-06-03T14:12:52.703Z,98285.80
2018-06-03T14:15:21.216Z,98275.33
2018-06-03T14:17:49.670Z,98274.36
2018-06-03T14:20:18.419Z,98275.88
2018-06-03T14:22:46.976Z,98272.22
2018-06-03T14:25:15.731Z,98264.95
2018-06-03T14:27:44.237Z,98271.05
2018-06-03T14:30:12.888Z,98262.62
2018-06-03T14:32:41.818Z,98261.16
2018-06-03T14:35:10.781Z,98259.18
2018-06-03T14:37:39.333Z,98261.68
2018-06-03T14:40:08.262Z,98261.44
2018-06-03T14:42:37.029Z,98261.12
2018-06-03T14:45:05.369Z,98261.98
2018-06-03T14:47:34.252Z,98259.77
2018-06-03T14:50:02.569Z,98259.78
2018-06-03T14:52:31.243Z,98250.95
2018-06-03T14:55:00.360Z,98249.22
2018-06-03T14:57:29.033Z,98246.00
2018-06-03T14:59:58.177Z,98238.97
2018-06-03T15:02:26.926Z,98234.44
2018-06-03T15:04:55.515Z,98236.73
2018-06-03T15:07:23.986Z,98233.53
2018-06-03T15:09:52.361Z,98228.64
2018-06-03T15:12:21.083Z,98226.03
2018-06-03T15:14:49.543Z,98225.06
2018-06-03T15:17:18.193Z,98228.00
2018-06-03T15:19:46.671Z,98226.14
2018-06-03T15:22:14.848Z,98218.19
2018-06-03T15:24:43.405Z,98222.63
2018-06-03T15:27:12.221Z,98221.33
2018-06-03T15:29:40.436Z,98215.97
2018-06-03T15:32:08.974Z,98212.75
2018-06-03T15:34:37.776Z,98212.02
2018-06-03T15:37:07.388Z,98207.79
2018-06-03T15:39:36.079Z,98197.62
2018-06-03T15:42:04.503Z,98198.50
2018-06-03T15:44:33.027Z,98197.77
2018-06-03T15:47:01.854Z,98199.03
2018-06-03T15:49:30.296Z,98189.27
2018-06-03T15:51:58.823Z,98190.20
2018-06-03T15:54:27.474Z,98184.43
2018-06-03T15:56:56.228Z,98193.17
2018-06-03T15:59:24.805Z,98176.19
2018-06-03T16:01:53.006Z,98173.98
2018-06-03T16:04:21.357Z,98179.45
2018-06-03T16:06:49.808Z,98168.09
2018-06-03T16:09:18.885Z,98171.27
2018-06-03T16:11:48.179Z,98178.86
2018-06-03T16:14:16.755Z,98171.73
2018-06-03T16:16:45.080Z,98171.81
2018-06-03T16:19:13.565Z,98176.31
2018-06-03T16:21:42.754Z,98166.56
2018-06-03T16:24:11.835Z,98172.74
2018-06-03T16:26:39.984Z,98164.41
2018-06-03T16:29:08.113Z,98163.33
2018-06-03T16:31:36.581Z,98160.54
2018-06-03T16:34:05.253Z,98157.81
2018-06-03T16:36:34.191Z,98158.23
2018-06-03T16:39:06.379Z,98154.73
2018-06-03T16:41:36.772Z,98157.02
2018-06-03T16:44:05.831Z,98153.91
2018-06-03T16:46:36.266Z,98151.88
2018-06-03T16:49:04.984Z,98146.30
2018-06-03T16:51:33.628Z,98143.11
2018-06-03T16:54:03.313Z,98139.38
2018-06-03T16:56:31.981Z,98142.46
2018-06-03T16:59:01.543Z,98142.49
2018-06-03T17:01:30.674Z,98138.81
2018-06-03T17:04:00.071Z,98145.81
2018-06-03T17:06:28.582Z,98142.31
2018-06-03T17:08:56.897Z,98140.59
2018-06-03T17:11:26.085Z,98138.41
2018-06-03T17:13:55.164Z,98133.51
2018-06-03T17:16:23.630Z,98135.68
2018-06-03T17:18:52.498Z,98131.34
2018-06-03T17:21:21.507Z,98130.17
2018-06-03T17:23:51.257Z,98126.06
2018-06-03T17:26:19.795Z,98135.28
2018-06-03T17:28:49.657Z,98129.47
2018-06-03T17:31:20.130Z,98129.96
2018-06-03T17:33:49.152Z,98127.55
2018-06-03T17:36:17.384Z,98122.66
2018-06-03T17:38:45.754Z,98124.75
2018-06-03T17:41:14.463Z,98123.38
2018-06-03T17:43:42.681Z,98121.95
2018-06-03T17:46:10.886Z,98111.83
2018-06-03T17:48:39.351Z,98111.63
2018-06-03T17:51:07.861Z,98117.42
2018-06-03T17:53:36.098Z,98116.35
2018-06-03T17:56:04.282Z,98122.73
2018-06-03T17:58:32.830Z,98121.92
2018-06-03T18:01:01.081Z,98124.50
2018-06-03T18:03:29.286Z,98120.28
2018-06-03T18:05:57.565Z,98121.06
2018-06-03T18:08:25.793Z,98127.69
2018-06-03T18:10:54.524Z,98122.86
2018-06-03T18:13:23.101Z,98113.75
2018-06-03T18:15:51.765Z,98119.30
2018-06-03T18:18:20.055Z,98122.55
2018-06-03T18:20:48.300Z,98121.84
2018-06-03T18:23:16.838Z,98120.55
2018-06-03T18:25:45.367Z,98110.29
2018-06-03T18:28:13.577Z,98113.58
2018-06-03T18:30:41.819Z,98111.09
2018-06-03T18:33:12.515Z,98102.84
2018-06-03T18:35:40.722Z,98105.77
2018-06-03T18:38:09.299Z,98101.80
2018-06-03T18:40:37.510Z,98099.18
2018-06-03T18:43:05.780Z,98094.98
2018-06-03T18:45:34.345Z,98093.34
2018-06-03T18:48:02.641Z,98098.39
2018-06-03T18:50:38.000Z,98092.17
2018-06-03T18:53:06.749Z,98090.13
2018-06-03T18:55:35.359Z,98091.07
2018-06-03T18:58:04.408Z,98093.06
2018-06-03T19:00:33.251Z,98085.59
2018-06-03T19:03:01.607Z,98085.36
2018-06-03T19:05:29.930Z,98081.64
2018-06-03T19:07:58.481Z,98076.86
2018-06-03T19:10:27.230Z,98077.48
2018-06-03T19:12:55.868Z,98077.41
2018-06-03T19:15:24.325Z,98078.70
2018-06-03T19:17:53.227Z,98074.34
2018-06-03T19:20:21.623Z,98082.48
2018-06-03T19:22:50.669Z,98078.98
2018-06-03T19:25:19.934Z,98081.67
2018-06-03T19:27:49.420Z,98082.53
2018-06-03T19:30:17.951Z,98090.55
2018-06-03T19:32:47.179Z,98088.14
2018-06-03T19:35:16.041Z,98087.05
2018-06-03T19:37:44.584Z,98087.31
2018-06-03T19:40:12.817Z,98095.53
2018-06-03T19:42:41.756Z,98095.39
2018-06-03T19:45:10.050Z,98096.31
2018-06-03T19:47:38.192Z,98111.11
2018-06-03T19:50:06.640Z,98109.22
2018-06-03T19:52:34.849Z,98108.31
2018-06-03T19:55:03.815Z,98109.12
2018-06-03T19:57:32.256Z,98106.17
2018-06-03T20:00:03.655Z,98108.01
2018-06-03T20:02:31.942Z,98113.06
2018-06-03T20:05:00.730Z,98110.27
2018-06-03T20:07:29.908Z,98114.22
2018-06-03T20:10:01.107Z,98117.58
2018-06-03T20:12:31.177Z,98118.36
2018-06-03T20:15:00.362Z,98114.83
2018-06-03T20:17:28.984Z,98113.61
2018-06-03T20:19:57.443Z,98122.31
2018-06-03T20:22:26.278Z,98117.69
2018-06-03T20:24:56.042Z,98123.55
2018-06-03T20:27:24.218Z,98121.00
2018-06-03T20:29:53.520Z,98119.33
2018-06-03T20:32:21.740Z,98118.23
2018-06-03T20:34:49.991Z,98120.46
2018-06-03T20:37:18.248Z,98126.70
2018-06-03T20:39:47.442Z,98123.41
2018-06-03T20:42:16.304Z,98125.12
2018-06-03T20:44:45.003Z,98127.63
2018-06-03T20:47:13.331Z,98121.23
2018-06-03T20:49:41.714Z,98123.17
2018-06-03T20:52:11.633Z,98123.20
2018-06-03T20:54:40.069Z,98113.72
2018-06-03T20:57:08.352Z,98113.06
2018-06-03T20:59:36.761Z,98107.38
2018-06-03T21:02:05.233Z,98109.33
2018-06-03T21:04:34.001Z,98107.27
2018-06-03T21:07:02.453Z,98113.73
2018-06-03T21:09:30.966Z,98117.92
2018-06-03T21:11:59.744Z,98125.58
2018-06-03T21:14:28.330Z,98121.54
2018-06-03T21:16:57.122Z,98115.16
2018-06-03T21:19:25.900Z,98115.58
2018-06-03T21:21:55.820Z,98112.70
2018-06-03T21:24:24.267Z,98116.25
2018-06-03T21:26:52.513Z,98115.75
2018-06-03T21:29:20.751Z,98121.17
2018-06-03T21:31:49.591Z,98124.25
2018-06-03T21:34:17.782Z,98123.33
2018-06-03T21:36:46.070Z,98125.45
2018-06-03T21:39:14.327Z,98128.45
2018-06-03T21:41:42.501Z,98125.86
2018-06-03T21:44:11.129Z,98121.44
2018-06-03T21:46:40.356Z,98128.32
2018-06-03T21:49:08.720Z,98127.07
2018-06-03T21:51:38.149Z,98117.34
2018-06-03T21:54:06.477Z,98121.83
2018-06-03T21:56:34.836Z,98118.16
2018-06-03T21:59:05.406Z,98120.61
2018-06-03T22:01:33.906Z,98119.84
2018-06-03T22:04:02.551Z,98120.67
2018-06-03T22:06:30.784Z,98121.21
2018-06-03T22:08:59.084Z,98121.45
2018-06-03T22:11:27.321Z,98115.70
2018-06-03T22:13:56.385Z,98123.26
2018-06-03T22:16:25.790Z,98124.11
2018-06-03T22:18:54.162Z,98123.38
2018-06-03T22:21:22.429Z,98124.08
2018-06-03T22:23:50.974Z,98120.81
2018-06-03T22:26:19.247Z,98124.50
2018-06-03T22:28:48.510Z,98123.92
2018-06-03T22:31:17.262Z,98119.88
2018-06-03T22:33:45.611Z,98120.10
2018-06-03T22:36:13.912Z,98117.44
2018-06-03T22:38:42.162Z,98121.34
2018-06-03T22:41:10.852Z,98121.47
2018-06-03T22:43:39.621Z,98120.69
2018-06-03T22:46:08.220Z,98119.16
2018-06-03T22:48:36.419Z,98111.41
2018-06-03T22:51:04.978Z,98110.15
2018-06-03T22:53:33.185Z,98107.03
2018-06-03T22:56:01.781Z,98111.41
2018-06-03T22:58:30.405Z,98108.43
2018-06-03T23:00:58.633Z,98105.02
2018-06-03T23:03:27.281Z,98095.77
2018-06-03T23:05:55.582Z,98102.34
2018-06-03T23:08:23.869Z,98102.97
2018-06-03T23:10:52.186Z,98102.89
2018-06-03T23:13:20.441Z,98096.34
2018-06-03T23:15:49.158Z,98097.13
2018-06-03T23:18:17.487Z,98098.44
2018-06-03T23:20:46.648Z,98099.86
2018-06-03T23:23:14.898Z,98102.70
2018-06-03T23:25:43.304Z,98096.00
2018-06-03T23:28:11.523Z,98092.31
2018-06-03T23:30:39.755Z,98091.37
2018-06-03T23:33:08.050Z,98088.89
2018-06-03T23:35:36.641Z,98084.77
2018-06-03T23:38:04.818Z,98083.62
2018-06-03T23:40:33.389Z,98074.20
2018-06-03T23:43:01.654Z,98080.09
2018-06-03T23:45:29.846Z,98076.23
2018-06-03T23:47:58.370Z,98077.05
2018-06-03T23:50:26.650Z,98071.84
2018-06-03T23:52:54.924Z,98070.70
2018-06-03T23:55:23.415Z,98069.06
2018-06-03T23:57:52.255Z,98058.34
